International Virtual Aviation Organisation

Russian Federation and Kazakhstan MCD

 

Карточка аэропорта UMKK

Внимание!
Информация на этой странице в стадии наполнения.
Если вы не увидели какой-то информации, или заметили неточность - пожалуйста сообщите нам!
Спасибо!
Команда RU-STAFF
Название аэропортаХраброво
Название аэропорта (англ.)Khrabrovo
Превышение43 ft. (13.1 m.)
Координаты54°53.4', 20°35.55'
Высота перехода1000m
Эшелон переходаQFE>=742mm:FL050; QFE<742:FL060
Коды ответчика6620-6637
Зона ОрВДКалининград РПИ (UMKK)
Данные METARUMKK 250430Z 24004MPS 2800 -DZ BR OVC004 07/07 Q1018 R24/290095 NOSIG RMK QBB120 OBST OBSC QFE763/1017
Проноз погоды (TAF)UMKK 250157Z 2503/2603 25006G12MPS 4000 -RADZ BR BKN006 OVC010 TEMPO 2503/2507 2100 -SHRA BR BKN004 SCT020CB FM250700 22003G08MPS 6000 SCT008 BKN016 BECMG 2513/2515 20005G10MPS BKN016 BECMG 2518/2520 BKN011
NOTAMshow/hide NOTAM
AWOS   TABLE

Информация о ВПП

ВПП Длина ВПП (м.) Покрытие Курс ВПП Частота ILS
063350Асфальтобетон60110.3
243350Асфальтобетон240109.5

Диспетчерские позиции

Позывной Наименование органа УВД Частота
UMKK_APPКалининград-Подход126.0
UMKK_TWRКалининград-Вышка127.2



Спутниковое изображение